createdAt,value
2022-11-07T00:00:25.301Z,65.58
2022-11-07T00:06:09.758Z,65.33
2022-11-07T00:08:48.099Z,65.33
2022-11-07T00:11:37.154Z,65.36
2022-11-07T00:14:51.670Z,65.33
2022-11-07T00:31:21.057Z,65.26
2022-11-07T00:36:56.601Z,65.06
2022-11-07T00:39:30.137Z,65.16
2022-11-07T00:42:08.791Z,64.92
2022-11-07T00:45:06.197Z,64.93
2022-11-07T00:51:50.546Z,64.64
2022-11-07T00:54:52.860Z,64.81
2022-11-07T00:58:11.236Z,65.07
2022-11-07T01:04:30.660Z,64.86
2022-11-07T01:13:41.882Z,65.34
2022-11-07T01:16:40.312Z,65.11
2022-11-07T01:19:24.785Z,65.15
2022-11-07T01:22:07.369Z,65.23
2022-11-07T01:24:54.178Z,64.73
2022-11-07T01:27:44.924Z,64.87
2022-11-07T01:30:51.488Z,64.91
2022-11-07T01:37:19.383Z,64.79
2022-11-07T01:40:38.506Z,64.64
2022-11-07T01:43:18.564Z,64.93
2022-11-07T01:51:46.027Z,64.86
2022-11-07T01:54:53.825Z,64.82
2022-11-07T01:57:49.962Z,64.94
2022-11-07T02:00:46.575Z,64.86
2022-11-07T02:03:22.729Z,64.66
2022-11-07T02:06:21.608Z,64.40
2022-11-07T02:09:27.811Z,64.87
2022-11-07T02:12:29.854Z,64.86
2022-11-07T02:15:32.429Z,65.17
2022-11-07T02:21:47.304Z,65.51
2022-11-07T02:30:39.359Z,65.65
2022-11-07T02:39:24.212Z,65.89
2022-11-07T02:45:03.899Z,65.79
2022-11-07T02:47:45.904Z,65.98
2022-11-07T02:50:34.319Z,65.77
2022-11-07T02:56:38.419Z,65.72
2022-11-07T02:59:21.766Z,65.82
2022-11-07T03:02:08.267Z,65.80
2022-11-07T03:04:59.339Z,65.80
2022-11-07T03:07:42.628Z,65.91
2022-11-07T03:10:19.482Z,66.00
2022-11-07T03:13:24.320Z,65.79
2022-11-07T03:19:43.197Z,66.31
2022-11-07T03:22:35.258Z,66.58
2022-11-07T03:25:34.817Z,66.38
2022-11-07T03:28:09.503Z,66.60
2022-11-07T03:45:11.568Z,66.46
2022-11-07T03:47:57.521Z,66.33
2022-11-07T03:54:40.150Z,66.38
2022-11-07T03:57:35.743Z,66.25
2022-11-07T04:00:18.033Z,66.23
2022-11-07T04:05:56.091Z,65.91
2022-11-07T04:08:47.741Z,66.43
2022-11-07T04:12:20.426Z,66.12
2022-11-07T04:15:12.845Z,66.24
2022-11-07T04:20:59.718Z,66.24
2022-11-07T04:23:44.187Z,66.25
2022-11-07T04:26:44.650Z,66.04
2022-11-07T04:30:31.104Z,65.96
2022-11-07T04:36:31.638Z,66.03
2022-11-07T04:39:28.645Z,66.02
2022-11-07T04:42:17.257Z,65.85
2022-11-07T04:51:14.438Z,65.89
2022-11-07T04:53:59.800Z,65.91
2022-11-07T04:56:52.318Z,66.19
2022-11-07T04:59:37.946Z,66.11
2022-11-07T05:02:21.203Z,66.07
2022-11-07T05:08:09.828Z,65.94
2022-11-07T05:10:53.260Z,65.79
2022-11-07T05:17:10.218Z,65.79
2022-11-07T05:26:14.207Z,65.71
2022-11-07T05:29:14.942Z,65.61
2022-11-07T05:37:37.520Z,65.86
2022-11-07T05:40:30.905Z,65.67
2022-11-07T05:43:43.884Z,65.73
2022-11-07T05:46:25.878Z,65.76
2022-11-07T05:49:19.182Z,65.89
2022-11-07T05:52:12.828Z,65.72
2022-11-07T05:54:44.515Z,65.58
2022-11-07T05:57:28.553Z,65.54
2022-11-07T06:00:12.670Z,65.62
2022-11-07T06:02:59.081Z,65.79
2022-11-07T06:05:38.599Z,65.62
2022-11-07T06:08:27.410Z,65.64
2022-11-07T06:11:01.494Z,65.45
2022-11-07T06:14:04.305Z,65.43
2022-11-07T06:16:58.892Z,65.57
2022-11-07T06:19:56.448Z,65.53
2022-11-07T06:22:52.001Z,65.46
2022-11-07T06:25:24.428Z,65.50
2022-11-07T06:28:10.690Z,65.51
2022-11-07T06:31:16.393Z,65.43
2022-11-07T06:33:58.414Z,65.40
2022-11-07T06:40:16.352Z,65.44
2022-11-07T06:43:15.354Z,65.40
2022-11-07T06:46:09.132Z,65.60
2022-11-07T06:48:52.526Z,65.60
2022-11-07T06:52:09.352Z,65.37
2022-11-07T06:54:46.756Z,65.54
2022-11-07T06:57:41.388Z,65.55
2022-11-07T07:00:50.484Z,65.57
2022-11-07T07:06:47.266Z,65.62
2022-11-07T07:09:33.821Z,65.74
2022-11-07T07:12:38.035Z,66.00
2022-11-07T07:15:24.648Z,65.78
2022-11-07T07:18:07.377Z,66.05
2022-11-07T07:20:48.970Z,66.18
2022-11-07T07:29:34.467Z,65.99
2022-11-07T07:32:14.410Z,66.26
2022-11-07T07:34:49.718Z,66.46
2022-11-07T07:41:39.886Z,66.71
2022-11-07T07:51:49.080Z,67.00
2022-11-07T07:54:21.569Z,66.82
2022-11-07T07:56:54.735Z,66.84
2022-11-07T08:00:25.161Z,66.74
2022-11-07T08:06:48.043Z,66.89
2022-11-07T08:16:43.145Z,67.16
2022-11-07T08:23:36.131Z,67.22
2022-11-07T08:26:42.804Z,67.23
2022-11-07T08:32:57.109Z,67.25
2022-11-07T08:43:53.692Z,66.88
2022-11-07T08:46:45.589Z,66.92
2022-11-07T08:53:53.790Z,66.77
2022-11-07T08:57:23.869Z,66.67
2022-11-07T09:00:05.388Z,66.59
2022-11-07T09:03:12.608Z,66.57
2022-11-07T09:05:55.190Z,66.19
2022-11-07T09:09:06.207Z,66.44
2022-11-07T09:12:28.475Z,66.08
2022-11-07T09:15:35.213Z,65.99
2022-11-07T09:18:07.042Z,66.01
2022-11-07T09:21:26.101Z,65.96
2022-11-07T09:24:53.923Z,65.78
2022-11-07T09:31:28.870Z,65.61
2022-11-07T09:38:11.303Z,65.81
2022-11-07T09:40:52.914Z,65.56
2022-11-07T09:43:59.625Z,65.54
2022-11-07T09:47:26.298Z,65.18
2022-11-07T09:57:20.529Z,64.85
2022-11-07T10:00:08.424Z,64.54
2022-11-07T10:03:06.050Z,64.41
2022-11-07T10:06:34.576Z,64.14
2022-11-07T10:10:03.569Z,63.90
2022-11-07T10:13:13.151Z,63.75
2022-11-07T10:23:02.920Z,63.03
2022-11-07T10:26:32.924Z,62.67
2022-11-07T10:33:14.108Z,62.04
2022-11-07T10:36:35.876Z,62.12
2022-11-07T10:39:42.648Z,61.75
2022-11-07T10:43:29.883Z,61.90
2022-11-07T10:46:51.629Z,62.03
2022-11-07T10:50:16.271Z,62.22
2022-11-07T10:52:47.305Z,62.93
2022-11-07T10:55:59.380Z,63.83
2022-11-07T10:59:02.234Z,64.14
2022-11-07T11:08:56.075Z,66.39
2022-11-07T11:29:39.175Z,68.15
2022-11-07T12:26:51.737Z,67.44
2022-11-07T12:30:34.258Z,67.35
2022-11-07T13:02:14.924Z,65.67
2022-11-07T13:04:50.105Z,65.49
2022-11-07T13:11:12.619Z,65.16
2022-11-07T13:14:28.446Z,64.91
2022-11-07T13:17:56.721Z,64.51
2022-11-07T13:21:06.946Z,64.32
2022-11-07T13:23:58.092Z,64.19
2022-11-07T13:30:03.441Z,62.98
2022-11-07T13:32:55.468Z,62.82
2022-11-07T13:35:55.194Z,62.65
2022-11-07T13:38:26.933Z,62.40
2022-11-07T13:41:44.352Z,62.16
2022-11-07T13:44:41.537Z,61.97
2022-11-07T13:47:21.325Z,61.72
2022-11-07T13:50:28.279Z,61.45
2022-11-07T14:00:38.310Z,60.82
2022-11-07T14:03:29.474Z,60.60
2022-11-07T14:06:13.279Z,60.45
2022-11-07T14:09:06.732Z,60.10
2022-11-07T14:12:06.113Z,59.77
2022-11-07T14:22:09.767Z,58.75
2022-11-07T14:25:11.956Z,58.70
2022-11-07T14:34:02.045Z,58.35
2022-11-07T14:36:46.086Z,58.17
2022-11-07T14:39:19.692Z,57.80
2022-11-07T14:42:09.667Z,57.52
2022-11-07T14:48:11.435Z,57.68
2022-11-07T14:51:37.315Z,57.29
2022-11-07T14:54:34.321Z,57.28
2022-11-07T15:00:42.327Z,56.84
2022-11-07T15:03:33.626Z,56.98
2022-11-07T15:06:16.799Z,56.98
2022-11-07T15:09:51.128Z,57.08
2022-11-07T15:12:44.158Z,56.78
2022-11-07T15:15:56.938Z,56.86
2022-11-07T15:21:47.647Z,57.32
2022-11-07T15:28:01.652Z,57.87
2022-11-07T15:33:57.447Z,58.73
2022-11-07T15:36:41.265Z,58.79
2022-11-07T15:42:51.408Z,60.21
2022-11-07T15:46:08.914Z,61.00
2022-11-07T15:49:29.890Z,61.70
2022-11-07T15:55:23.452Z,61.83
2022-11-07T16:01:16.385Z,61.48
2022-11-07T16:03:50.808Z,61.27
2022-11-07T16:06:30.464Z,60.89
2022-11-07T16:09:07.737Z,60.74
2022-11-07T16:12:04.788Z,60.55
2022-11-07T16:14:43.817Z,60.28
2022-11-07T16:17:46.885Z,60.30
2022-11-07T16:20:21.677Z,59.96
2022-11-07T16:23:13.260Z,59.86
2022-11-07T16:26:02.754Z,59.75
2022-11-07T16:28:47.505Z,59.91
2022-11-07T16:31:18.102Z,59.70
2022-11-07T16:33:57.418Z,59.76
2022-11-07T16:36:30.452Z,59.38
2022-11-07T16:39:12.853Z,59.51
2022-11-07T16:42:01.860Z,59.62
2022-11-07T16:45:02.795Z,59.70
2022-11-07T16:47:35.009Z,59.77
2022-11-07T16:50:42.188Z,60.04
2022-11-07T16:53:13.592Z,60.23
2022-11-07T16:56:11.768Z,60.15
2022-11-07T17:02:21.347Z,60.90
2022-11-07T17:05:03.110Z,61.04
2022-11-07T17:07:40.253Z,61.23
2022-11-07T17:13:23.418Z,61.31
2022-11-07T17:16:12.534Z,61.75
2022-11-07T17:18:42.033Z,61.37
2022-11-07T17:24:11.730Z,60.68
2022-11-07T17:27:06.397Z,60.67
2022-11-07T17:29:45.730Z,60.75
2022-11-07T17:32:19.817Z,60.40
2022-11-07T17:35:17.773Z,60.26
2022-11-07T17:38:01.131Z,59.75
2022-11-07T17:40:37.603Z,59.89
2022-11-07T17:43:11.895Z,59.31
2022-11-07T17:45:51.639Z,59.15
2022-11-07T17:48:23.187Z,58.96
2022-11-07T17:50:57.411Z,59.08
2022-11-07T17:53:43.557Z,58.97
2022-11-07T17:56:19.981Z,59.04
2022-11-07T17:58:52.563Z,59.35
2022-11-07T18:01:31.284Z,59.51
2022-11-07T18:04:05.031Z,59.62
2022-11-07T18:06:52.547Z,59.81
2022-11-07T18:09:30.514Z,59.93
2022-11-07T18:12:26.665Z,59.77
2022-11-07T18:15:05.276Z,59.59
2022-11-07T18:17:40.480Z,59.40
2022-11-07T18:20:28.568Z,59.32
2022-11-07T18:23:04.060Z,59.02
2022-11-07T18:25:35.686Z,59.01
2022-11-07T18:28:06.990Z,59.08
2022-11-07T18:30:37.353Z,58.83
2022-11-07T18:33:09.371Z,58.94
2022-11-07T18:35:50.014Z,59.01
2022-11-07T18:38:20.356Z,58.94
2022-11-07T18:41:06.590Z,58.89
2022-11-07T18:43:37.768Z,59.07
2022-11-07T18:46:14.708Z,59.11
2022-11-07T18:48:47.687Z,59.46
2022-11-07T18:51:19.773Z,59.47
2022-11-07T18:53:54.204Z,59.36
2022-11-07T18:56:28.852Z,59.32
2022-11-07T18:58:59.641Z,58.97
2022-11-07T19:01:34.395Z,58.73
2022-11-07T19:04:16.139Z,58.72
2022-11-07T19:07:06.024Z,58.66
2022-11-07T19:09:36.467Z,58.22
2022-11-07T19:12:11.906Z,58.29
2022-11-07T19:15:03.901Z,58.33
2022-11-07T19:17:46.971Z,58.20
2022-11-07T19:20:40.824Z,58.05
2022-11-07T19:23:28.999Z,58.19
2022-11-07T19:26:00.310Z,57.95
2022-11-07T19:28:39.110Z,58.14
2022-11-07T19:33:56.065Z,57.99
2022-11-07T19:36:34.276Z,57.90
2022-11-07T19:39:24.268Z,57.83
2022-11-07T19:41:56.482Z,57.85
2022-11-07T19:44:32.178Z,57.73
2022-11-07T19:47:12.323Z,57.76
2022-11-07T19:49:57.977Z,57.65
2022-11-07T19:52:42.628Z,57.66
2022-11-07T19:55:39.670Z,57.42
2022-11-07T19:58:16.124Z,57.51
2022-11-07T20:00:49.729Z,57.57
2022-11-07T20:03:22.133Z,57.47
2022-11-07T20:06:24.690Z,57.76
2022-11-07T20:09:13.355Z,57.78
2022-11-07T20:12:07.976Z,57.69
2022-11-07T20:14:41.017Z,57.79
2022-11-07T20:17:16.588Z,57.82
2022-11-07T20:20:14.094Z,57.85
2022-11-07T20:22:55.503Z,58.42
2022-11-07T20:25:54.182Z,58.10
2022-11-07T20:28:31.257Z,58.07
2022-11-07T20:31:45.244Z,58.13
2022-11-07T20:34:30.281Z,58.40
2022-11-07T20:37:08.476Z,59.00
2022-11-07T20:39:37.894Z,59.16
2022-11-07T20:42:12.794Z,59.87
2022-11-07T20:44:55.588Z,60.43
2022-11-07T20:47:35.291Z,61.21
2022-11-07T20:50:08.645Z,61.60
2022-11-07T20:52:50.728Z,62.47
2022-11-07T20:55:33.735Z,63.13
2022-11-07T20:58:19.815Z,62.95
2022-11-07T21:00:54.269Z,63.38
2022-11-07T21:03:32.289Z,63.63
2022-11-07T21:06:05.626Z,63.19
2022-11-07T21:08:37.429Z,63.06
2022-11-07T21:11:09.980Z,62.93
2022-11-07T21:13:41.945Z,63.03
2022-11-07T21:16:19.555Z,63.18
2022-11-07T21:18:57.603Z,63.06
2022-11-07T21:21:35.689Z,63.71
2022-11-07T21:24:05.850Z,64.11
2022-11-07T21:26:37.967Z,64.34
2022-11-07T21:29:10.986Z,64.18
2022-11-07T21:31:46.644Z,64.65
2022-11-07T21:34:25.202Z,65.12
2022-11-07T21:36:54.809Z,65.52
2022-11-07T21:39:26.428Z,65.77
2022-11-07T21:41:59.125Z,66.27
2022-11-07T21:44:46.426Z,67.07
2022-11-07T21:50:45.320Z,67.67
2022-11-07T21:58:09.043Z,68.54
2022-11-07T22:05:57.228Z,69.02
2022-11-07T22:08:49.589Z,68.75
2022-11-07T22:12:00.442Z,69.13
2022-11-07T22:14:52.773Z,68.83
2022-11-07T22:17:37.025Z,68.54
2022-11-07T22:20:33.769Z,68.86
2022-11-07T22:23:27.442Z,68.75
2022-11-07T22:33:54.835Z,67.02
2022-11-07T22:36:48.917Z,67.22
2022-11-07T22:39:38.554Z,67.52
2022-11-07T22:45:44.794Z,67.19
2022-11-07T22:48:45.344Z,67.57
2022-11-07T22:51:24.054Z,67.29
2022-11-07T22:57:05.536Z,67.40
2022-11-07T22:59:54.899Z,67.33
2022-11-07T23:02:29.485Z,67.52
2022-11-07T23:05:06.445Z,67.25
2022-11-07T23:07:50.591Z,67.15
2022-11-07T23:10:37.247Z,67.27
2022-11-07T23:13:19.223Z,67.01
2022-11-07T23:16:29.764Z,67.14
2022-11-07T23:21:53.250Z,67.05
2022-11-07T23:27:22.434Z,67.10
2022-11-07T23:29:57.424Z,66.97
2022-11-07T23:32:31.923Z,67.12
2022-11-07T23:35:17.249Z,66.95
2022-11-07T23:38:07.931Z,66.91
2022-11-07T23:40:45.641Z,66.70
2022-11-07T23:43:39.976Z,66.66
2022-11-07T23:46:33.007Z,66.63
2022-11-07T23:49:26.140Z,66.44
2022-11-07T23:52:03.078Z,66.58
2022-11-07T23:55:33.049Z,66.51
